Time;durP1;ratioP1;P1;durP2;ratioP2;P2;SDS_P1;SDS_P2;PMS_P1;PMS_P2;Temp;Humidity;BMP_temperature;BMP_pressure;BME280_temperature;BME280_humidity;BME280_pressure;Samples;Min_cycle;Max_cycle;Signal;HPM_P1;HPM_P2
2023/05/07 05:00:13;;;;;;;3.43;3.13;;;14.60;97.20;;;;;;2122744;23;20152;-75
2023/05/07 05:01:04;;;;;;;5.53;3.17;;;14.60;97.20;;;;;;2121460;23;20184;-76
2023/05/07 05:01:57;;;;;;;4.10;3.80;;;14.60;97.20;;;;;;2121433;23;20180;-75
2023/05/07 05:02:48;;;;;;;3.65;3.35;;;14.70;97.20;;;;;;2121606;23;20177;-76
2023/05/07 05:03:40;;;;;;;7.50;3.67;;;14.70;97.20;;;;;;2121619;23;20207;-75
2023/05/07 05:04:31;;;;;;;3.50;3.20;;;14.70;97.20;;;;;;2121662;23;20180;-76
2023/05/07 05:05:23;;;;;;;3.65;3.28;;;14.70;97.20;;;;;;2121638;23;20184;-75
2023/05/07 05:06:14;;;;;;;3.78;3.47;;;14.70;97.20;;;;;;2121482;23;20207;-75
2023/05/07 05:07:05;;;;;;;5.03;3.57;;;14.80;97.20;;;;;;2121697;23;20195;-76
2023/05/07 05:07:56;;;;;;;4.13;3.47;;;14.80;97.20;;;;;;2121639;23;20180;-75
2023/05/07 05:08:48;;;;;;;3.40;3.10;;;14.80;97.20;;;;;;2121484;23;20255;-75
2023/05/07 05:09:38;;;;;;;3.80;3.50;;;14.90;97.20;;;;;;2121193;23;20625;-76
2023/05/07 05:10:30;;;;;;;5.03;3.43;;;14.90;97.20;;;;;;2121328;23;20651;-75
2023/05/07 05:11:21;;;;;;;4.70;3.58;;;14.90;97.20;;;;;;2121336;23;20181;-75
2023/05/07 05:12:12;;;;;;;6.63;3.50;;;14.90;97.20;;;;;;2121596;23;20172;-76
2023/05/07 05:13:03;;;;;;;3.63;3.33;;;15.00;97.20;;;;;;2121611;23;20188;-76
2023/05/07 05:13:55;;;;;;;5.37;4.10;;;15.00;97.20;;;;;;2121637;23;20172;-76
2023/05/07 05:14:46;;;;;;;3.67;3.20;;;15.00;97.20;;;;;;2121622;23;20663;-76
2023/05/07 05:15:38;;;;;;;8.20;3.90;;;15.10;97.20;;;;;;2121408;23;20513;-76
2023/05/07 05:16:30;;;;;;;4.68;4.28;;;15.10;97.20;;;;;;2121637;23;20179;-76
2023/05/07 05:17:20;;;;;;;4.15;3.83;;;15.10;97.20;;;;;;2121479;23;20583;-75
2023/05/07 05:18:12;;;;;;;4.37;3.87;;;15.20;97.20;;;;;;2121559;23;20190;-75
2023/05/07 05:19:03;;;;;;;4.10;3.80;;;15.20;97.20;;;;;;2121403;23;20192;-76
2023/05/07 05:19:54;;;;;;;3.87;3.20;;;15.30;97.20;;;;;;2121198;23;20176;-76
2023/05/07 05:20:45;;;;;;;3.85;3.33;;;15.30;97.20;;;;;;2121572;23;20522;-75
2023/05/07 05:21:37;;;;;;;5.50;3.70;;;15.30;97.20;;;;;;2121277;23;20520;-76
2023/05/07 05:22:30;;;;;;;3.40;3.20;;;15.40;97.20;;;;;;2121541;23;20188;-75
2023/05/07 05:23:22;;;;;;;4.45;3.55;;;15.50;97.20;;;;;;2121582;23;20504;-76
2023/05/07 05:24:13;;;;;;;4.03;3.72;;;15.50;97.20;;;;;;2121573;23;20180;-76
2023/05/07 05:25:05;;;;;;;4.33;3.93;;;15.60;97.20;;;;;;2121542;23;20179;-76
2023/05/07 05:25:57;;;;;;;4.20;3.90;;;15.60;97.20;;;;;;2121541;23;20191;-76
2023/05/07 05:26:49;;;;;;;4.80;3.72;;;15.70;97.20;;;;;;2121545;23;20179;-75
2023/05/07 05:27:40;;;;;;;4.65;4.18;;;15.70;97.20;;;;;;2121350;23;20187;-76
2023/05/07 05:28:31;;;;;;;7.60;4.40;;;15.80;97.20;;;;;;2121594;23;20251;-75
2023/05/07 05:29:22;;;;;;;3.92;3.63;;;15.80;97.20;;;;;;2121410;23;20203;-75
2023/05/07 05:30:14;;;;;;;5.13;4.73;;;15.90;97.20;;;;;;2121092;23;20178;-76
2023/05/07 05:31:06;;;;;;;4.50;4.20;;;15.90;97.20;;;;;;2111000;23;20408;-76
2023/05/07 05:31:58;;;;;;;6.25;4.13;;;16.00;97.20;;;;;;2111182;23;20188;-75
2023/05/07 05:32:49;;;;;;;4.60;4.20;;;16.00;97.20;;;;;;2111227;23;20185;-75
2023/05/07 05:33:41;;;;;;;5.33;4.83;;;16.10;97.20;;;;;;2111355;23;20181;-75
2023/05/07 05:34:33;;;;;;;4.90;4.50;;;16.10;97.20;;;;;;2111228;23;20184;-76
2023/05/07 05:35:24;;;;;;;4.88;4.13;;;16.10;97.20;;;;;;2111363;23;20236;-76
2023/05/07 05:36:15;;;;;;;4.90;4.30;;;16.10;97.20;;;;;;2111228;23;20184;-76
2023/05/07 05:37:07;;;;;;;4.57;4.10;;;16.10;97.20;;;;;;2111446;23;20178;-76
2023/05/07 05:37:57;;;;;;;4.10;3.80;;;16.20;97.20;;;;;;2111427;23;20181;-76
2023/05/07 05:38:49;;;;;;;4.30;4.00;;;16.20;97.20;;;;;;2111194;23;20173;-76
2023/05/07 05:39:41;;;;;;;4.20;3.85;;;16.30;97.20;;;;;;2110792;23;20184;-76
2023/05/07 05:40:33;;;;;;;4.50;4.10;;;16.30;97.20;;;;;;2111354;23;20193;-76
2023/05/07 05:41:23;;;;;;;4.43;4.13;;;16.30;97.20;;;;;;2111288;23;20235;-75
2023/05/07 05:42:15;;;;;;;4.57;4.17;;;16.40;97.20;;;;;;2111429;23;20684;-76
2023/05/07 05:43:06;;;;;;;4.45;4.05;;;16.50;97.20;;;;;;2111203;23;20185;-75
2023/05/07 05:43:58;;;;;;;4.50;4.20;;;16.50;97.20;;;;;;2111105;23;20179;-75
2023/05/07 05:44:48;;;;;;;4.75;4.07;;;16.50;97.20;;;;;;2111211;23;20181;-76
2023/05/07 05:45:40;;;;;;;4.17;3.77;;;16.50;97.20;;;;;;2111345;23;20184;-75
2023/05/07 05:46:32;;;;;;;5.38;3.47;;;16.60;97.20;;;;;;2111545;23;20626;-75
2023/05/07 05:47:24;;;;;;;4.35;4.05;;;16.60;97.20;;;;;;2111337;23;20173;-75
2023/05/07 05:48:14;;;;;;;4.78;4.38;;;16.60;97.20;;;;;;2111544;23;20191;-76
2023/05/07 05:49:06;;;;;;;4.60;4.13;;;16.70;97.20;;;;;;2111809;23;20196;-75
2023/05/07 05:49:57;;;;;;;4.20;3.80;;;16.70;97.20;;;;;;2110954;23;20512;-75
2023/05/07 05:50:49;;;;;;;4.20;3.90;;;16.70;97.20;;;;;;2111238;23;20288;-75
2023/05/07 05:51:40;;;;;;;4.30;3.90;;;16.80;97.20;;;;;;2111189;23;20192;-75
2023/05/07 05:52:31;;;;;;;4.20;3.83;;;16.80;97.20;;;;;;2111424;23;20175;-75
2023/05/07 05:53:22;;;;;;;4.10;3.67;;;16.80;97.20;;;;;;2111268;23;20504;-75
2023/05/07 05:54:14;;;;;;;4.50;4.10;;;16.80;97.20;;;;;;2111305;23;20220;-76
2023/05/07 05:55:06;;;;;;;4.00;3.70;;;16.90;97.20;;;;;;2111356;23;20181;-75
2023/05/07 05:55:58;;;;;;;4.68;4.32;;;16.90;97.20;;;;;;2111361;23;20233;-75
2023/05/07 05:56:49;;;;;;;4.45;4.15;;;16.90;97.20;;;;;;2111364;23;20188;-75
2023/05/07 05:57:41;;;;;;;4.10;3.70;;;16.90;97.20;;;;;;2110981;23;20183;-75
2023/05/07 05:58:31;;;;;;;4.18;3.88;;;17.00;97.20;;;;;;2111094;23;20405;-75
2023/05/07 05:59:23;;;;;;;4.47;4.07;;;17.00;97.20;;;;;;2111150;23;20244;-74
2023/05/07 06:00:15;;;;;;;4.03;3.72;;;17.10;97.20;;;;;;2110711;23;20185;-75
2023/05/07 06:01:07;;;;;;;4.45;4.03;;;17.10;97.20;;;;;;2111302;23;20213;-74
2023/05/07 06:01:59;;;;;;;4.07;3.75;;;17.20;97.20;;;;;;2111170;23;20501;-75
2023/05/07 06:02:51;;;;;;;4.43;4.00;;;17.20;97.20;;;;;;2111313;23;20507;-75
2023/05/07 06:03:42;;;;;;;4.75;4.00;;;17.20;97.20;;;;;;2111199;23;20188;-74
2023/05/07 06:04:33;;;;;;;3.93;3.63;;;17.30;97.20;;;;;;2111368;23;20173;-74
2023/05/07 06:05:24;;;;;;;4.40;4.10;;;17.30;97.20;;;;;;2111314;23;20196;-75
2023/05/07 06:06:16;;;;;;;7.73;4.40;;;17.30;97.20;;;;;;2111266;23;20183;-74
2023/05/07 06:07:07;;;;;;;5.00;4.53;;;17.30;97.20;;;;;;2111245;23;20704;-74
2023/05/07 06:07:58;;;;;;;4.20;3.90;;;17.30;97.20;;;;;;2111226;23;20551;-75
2023/05/07 06:08:49;;;;;;;4.35;4.05;;;17.30;97.20;;;;;;2111233;23;20181;-75
2023/05/07 06:09:41;;;;;;;5.07;4.57;;;17.40;97.20;;;;;;2110751;23;20193;-75
2023/05/07 06:10:32;;;;;;;4.50;3.90;;;17.40;97.20;;;;;;2111151;23;20749;-74
2023/05/07 06:11:24;;;;;;;4.40;4.00;;;17.50;97.20;;;;;;2110873;23;20510;-75
2023/05/07 06:12:14;;;;;;;4.38;4.00;;;17.50;97.20;;;;;;2110688;23;20196;-75
2023/05/07 06:13:06;;;;;;;4.40;4.00;;;17.60;97.20;;;;;;2111236;23;20173;-74
2023/05/07 06:13:57;;;;;;;4.43;4.05;;;17.60;97.20;;;;;;2111214;23;20185;-75
2023/05/07 06:14:48;;;;;;;5.10;3.90;;;17.60;97.20;;;;;;2111278;23;20181;-74
2023/05/07 06:15:39;;;;;;;4.78;4.38;;;17.70;97.20;;;;;;2111181;23;20188;-75
2023/05/07 06:16:31;;;;;;;4.10;3.63;;;17.70;97.20;;;;;;2111226;23;20175;-74
2023/05/07 06:17:23;;;;;;;5.88;4.15;;;17.80;97.20;;;;;;2111175;23;20181;-75
2023/05/07 06:18:15;;;;;;;5.13;4.15;;;17.80;97.20;;;;;;2111211;23;20181;-74
2023/05/07 06:19:05;;;;;;;4.18;3.88;;;17.90;97.20;;;;;;2111235;23;20182;-74
2023/05/07 06:19:57;;;;;;;4.70;4.30;;;17.90;97.20;;;;;;2110872;23;20174;-74
2023/05/07 06:20:48;;;;;;;3.75;3.55;;;18.00;97.20;;;;;;2111093;23;20198;-74
2023/05/07 06:21:40;;;;;;;4.43;3.70;;;18.00;97.20;;;;;;2111153;23;20217;-74
2023/05/07 06:22:31;;;;;;;3.85;3.55;;;18.10;97.20;;;;;;2111311;23;20502;-74
2023/05/07 06:23:23;;;;;;;3.90;3.40;;;18.10;97.20;;;;;;2111279;23;20471;-74
2023/05/07 06:24:14;;;;;;;4.30;3.90;;;18.10;97.20;;;;;;2111217;23;20185;-75
2023/05/07 06:25:06;;;;;;;5.13;4.67;;;18.20;97.20;;;;;;2111301;23;20179;-75
2023/05/07 06:25:57;;;;;;;4.50;4.18;;;18.30;97.20;;;;;;2111099;23;20409;-75
2023/05/07 06:26:49;;;;;;;4.43;4.13;;;18.30;97.20;;;;;;2111232;23;20188;-75
2023/05/07 06:27:39;;;;;;;3.90;3.60;;;18.30;97.20;;;;;;2110891;23;20192;-75
2023/05/07 06:28:35;;;;;;;4.10;3.80;;;18.40;97.20;;;;;;2111038;23;20169;-74
2023/05/07 06:29:26;;;;;;;3.60;3.30;;;18.50;97.20;;;;;;2111168;23;20948;-74
2023/05/07 06:30:18;;;;;;;3.97;3.60;;;18.50;97.20;;;;;;2110938;23;20580;-75
2023/05/07 06:31:13;;;;;;;4.43;4.03;;;18.60;97.20;;;;;;2120820;23;20210;-74
2023/05/07 06:32:08;;;;;;;4.50;4.03;;;18.70;97.20;;;;;;2121352;23;20183;-74
2023/05/07 06:33:00;;;;;;;3.72;3.42;;;18.80;97.20;;;;;;2121307;23;20520;-74
2023/05/07 06:33:52;;;;;;;5.15;3.42;;;18.80;97.20;;;;;;2121351;23;20231;-74
2023/05/07 06:34:43;;;;;;;4.50;4.10;;;18.90;97.20;;;;;;2121461;23;20180;-74
2023/05/07 06:35:34;;;;;;;3.60;3.20;;;18.90;97.20;;;;;;2121349;23;20176;-74
2023/05/07 06:36:26;;;;;;;4.00;3.70;;;19.00;97.20;;;;;;2121376;23;20188;-75
2023/05/07 06:37:17;;;;;;;4.70;4.30;;;19.00;97.20;;;;;;2121344;23;20628;-74
2023/05/07 06:38:08;;;;;;;4.40;3.80;;;19.10;97.20;;;;;;2121358;23;20187;-74
2023/05/07 06:39:00;;;;;;;4.40;4.10;;;19.10;97.20;;;;;;2121349;23;20172;-74
2023/05/07 06:39:51;;;;;;;3.95;3.65;;;19.20;97.20;;;;;;2120924;23;20173;-74
2023/05/07 06:40:42;;;;;;;4.80;4.27;;;19.20;97.20;;;;;;2121218;23;20268;-74
2023/05/07 06:41:34;;;;;;;4.13;3.67;;;19.30;97.20;;;;;;2121211;23;20176;-74
2023/05/07 06:42:26;;;;;;;4.32;3.92;;;19.30;97.20;;;;;;2121397;23;20180;-74
2023/05/07 06:43:17;;;;;;;6.03;3.78;;;19.30;97.20;;;;;;2121299;23;20180;-74
2023/05/07 06:44:08;;;;;;;4.30;3.90;;;19.40;97.20;;;;;;2121162;23;20251;-74
2023/05/07 06:44:59;;;;;;;5.88;4.50;;;19.40;97.20;;;;;;2121157;23;20180;-74
2023/05/07 06:45:51;;;;;;;4.20;3.80;;;19.50;97.20;;;;;;2121089;23;20179;-74
2023/05/07 06:46:41;;;;;;;4.25;3.92;;;19.50;97.20;;;;;;2121228;23;20180;-75
2023/05/07 06:47:33;;;;;;;4.67;4.20;;;19.50;97.20;;;;;;2121091;23;20176;-74
2023/05/07 06:48:25;;;;;;;4.60;4.10;;;19.50;97.20;;;;;;2121274;23;20180;-74
2023/05/07 06:49:17;;;;;;;5.55;4.15;;;19.50;97.20;;;;;;2121144;23;20239;-75
2023/05/07 06:50:09;;;;;;;5.10;4.03;;;19.50;97.20;;;;;;2120857;23;20184;-74
2023/05/07 06:51:01;;;;;;;4.22;3.90;;;19.60;97.20;;;;;;2121347;23;20566;-74
2023/05/07 06:51:51;;;;;;;3.70;3.40;;;19.60;97.20;;;;;;2121227;23;20187;-74
2023/05/07 06:52:43;;;;;;;4.30;3.90;;;19.60;97.20;;;;;;2121240;23;20172;-74
2023/05/07 06:53:35;;;;;;;4.65;4.25;;;19.70;97.20;;;;;;2121312;23;20183;-74
2023/05/07 06:54:27;;;;;;;7.00;4.00;;;19.70;97.20;;;;;;2121117;23;20236;-75
2023/05/07 06:55:19;;;;;;;5.70;3.70;;;19.80;97.20;;;;;;2121231;23;20665;-74
2023/05/07 06:56:10;;;;;;;4.85;4.45;;;19.80;97.20;;;;;;2121312;23;20565;-74
2023/05/07 06:57:01;;;;;;;4.65;4.35;;;19.80;97.20;;;;;;2121261;23;20187;-74
2023/05/07 06:57:53;;;;;;;4.70;4.30;;;19.80;97.20;;;;;;2121366;23;20177;-74
2023/05/07 06:58:43;;;;;;;4.93;4.50;;;19.90;97.20;;;;;;2121248;23;20181;-73
2023/05/07 06:59:35;;;;;;;4.03;3.50;;;19.90;97.20;;;;;;2120874;23;20172;-75
2023/05/07 07:00:26;;;;;;;4.82;4.30;;;19.90;97.20;;;;;;2120952;23;20199;-74
2023/05/07 07:01:18;;;;;;;4.10;3.70;;;19.90;97.20;;;;;;2121141;23;20172;-74
2023/05/07 07:02:08;;;;;;;3.97;3.67;;;19.90;97.20;;;;;;2121160;23;20181;-74
2023/05/07 07:03:00;;;;;;;4.50;4.20;;;20.00;97.20;;;;;;2121197;23;20178;-74
2023/05/07 07:03:52;;;;;;;4.63;4.10;;;20.00;97.20;;;;;;2121262;23;20188;-74
2023/05/07 07:04:44;;;;;;;3.95;3.65;;;20.10;97.20;;;;;;2121151;23;20184;-74
2023/05/07 07:05:35;;;;;;;5.20;4.70;;;20.10;97.20;;;;;;2121286;23;20177;-74
2023/05/07 07:06:27;;;;;;;4.40;4.00;;;20.20;97.20;;;;;;2121229;23;20177;-75
2023/05/07 07:07:18;;;;;;;4.63;4.22;;;20.20;97.20;;;;;;2121247;23;20188;-74
2023/05/07 07:08:10;;;;;;;5.40;4.20;;;20.20;97.20;;;;;;2121282;23;20208;-74
2023/05/07 07:09:01;;;;;;;5.10;4.60;;;20.30;97.20;;;;;;2121215;23;20195;-74
2023/05/07 07:09:52;;;;;;;4.30;4.00;;;20.30;97.20;;;;;;2120664;23;20207;-75
2023/05/07 07:10:43;;;;;;;4.20;3.80;;;20.40;97.20;;;;;;2121133;23;20200;-74
2023/05/07 07:11:35;;;;;;;5.17;4.73;;;20.40;97.20;;;;;;2121151;23;20248;-74
2023/05/07 07:12:26;;;;;;;4.55;4.15;;;20.50;97.20;;;;;;2121234;23;20181;-74
2023/05/07 07:13:19;;;;;;;4.60;4.20;;;20.50;97.20;;;;;;2121226;23;20173;-74
2023/05/07 07:14:09;;;;;;;5.10;4.60;;;20.60;97.20;;;;;;2121243;23;20177;-74
2023/05/07 07:15:02;;;;;;;4.60;4.20;;;20.60;97.20;;;;;;2121174;23;20173;-74
2023/05/07 07:15:53;;;;;;;4.80;4.38;;;20.70;97.20;;;;;;2121043;23;20263;-74
2023/05/07 07:16:46;;;;;;;4.77;4.37;;;20.70;97.20;;;;;;2120991;23;20177;-74
2023/05/07 07:17:37;;;;;;;5.95;4.40;;;20.80;97.20;;;;;;2121039;23;20176;-75
2023/05/07 07:18:29;;;;;;;7.47;4.87;;;20.80;97.20;;;;;;2121254;23;20247;-75
2023/05/07 07:19:21;;;;;;;5.20;4.75;;;20.80;97.20;;;;;;2121625;23;20180;-74
2023/05/07 07:20:12;;;;;;;4.93;4.53;;;20.80;97.20;;;;;;2120821;23;20173;-74
2023/05/07 07:21:03;;;;;;;4.63;4.22;;;20.80;97.20;;;;;;2121124;23;20520;-74
2023/05/07 07:21:55;;;;;;;5.80;4.70;;;20.80;97.20;;;;;;2121134;23;20654;-75
2023/05/07 07:22:46;;;;;;;4.55;4.15;;;20.80;97.20;;;;;;2121208;23;20408;-74
2023/05/07 07:23:37;;;;;;;5.00;4.60;;;20.90;97.20;;;;;;2121095;23;20175;-75
2023/05/07 07:24:28;;;;;;;6.35;5.03;;;20.90;97.20;;;;;;2121170;23;20547;-74
2023/05/07 07:25:20;;;;;;;4.40;4.00;;;21.00;97.20;;;;;;2121170;23;20172;-75
2023/05/07 07:26:11;;;;;;;4.93;4.53;;;21.10;97.20;;;;;;2121079;23;20200;-75
2023/05/07 07:27:02;;;;;;;5.80;4.33;;;21.20;97.20;;;;;;2121220;23;20180;-75
2023/05/07 07:27:53;;;;;;;5.10;4.30;;;21.30;97.20;;;;;;2121214;23;20180;-75
2023/05/07 07:28:46;;;;;;;5.40;4.47;;;21.40;97.20;;;;;;2121196;23;20252;-74
2023/05/07 07:29:36;;;;;;;5.00;4.60;;;21.50;97.20;;;;;;2120655;23;20177;-75
2023/05/07 07:30:28;;;;;;;4.90;4.50;;;21.60;97.20;;;;;;2120532;23;20212;-75
2023/05/07 07:31:19;;;;;;;4.90;4.50;;;21.60;97.20;;;;;;2121133;23;20161;-74
2023/05/07 07:32:11;;;;;;;6.67;4.90;;;21.70;97.20;;;;;;2121215;23;20179;-75
2023/05/07 07:33:02;;;;;;;5.18;4.63;;;21.70;97.20;;;;;;2121004;23;20180;-75
2023/05/07 07:33:54;;;;;;;5.43;4.93;;;21.70;97.20;;;;;;2121162;23;20251;-75
2023/05/07 07:34:46;;;;;;;4.80;4.35;;;21.70;97.20;;;;;;2121119;23;20177;-75
2023/05/07 07:35:38;;;;;;;4.40;4.07;;;21.80;97.20;;;;;;2121181;23;20173;-75
2023/05/07 07:36:29;;;;;;;5.38;3.70;;;21.80;97.20;;;;;;2121040;23;20180;-75
2023/05/07 07:37:21;;;;;;;5.55;4.20;;;21.90;97.20;;;;;;2121150;23;20180;-74
2023/05/07 07:38:12;;;;;;;3.70;3.40;;;21.90;97.20;;;;;;2121175;23;20176;-75
2023/05/07 07:39:04;;;;;;;7.07;3.50;;;22.00;97.20;;;;;;2121125;23;20263;-75
2023/05/07 07:39:55;;;;;;;4.97;4.57;;;22.10;97.20;;;;;;2120630;23;20180;-75
2023/05/07 07:40:48;;;;;;;4.53;4.13;;;22.20;97.20;;;;;;2121093;23;20220;-74
2023/05/07 07:41:39;;;;;;;4.38;3.97;;;22.30;97.20;;;;;;2121038;23;20211;-75
2023/05/07 07:42:31;;;;;;;4.20;3.90;;;22.30;97.20;;;;;;2121185;23;20191;-74
2023/05/07 07:43:21;;;;;;;6.25;4.00;;;22.40;97.20;;;;;;2120928;23;20423;-75
2023/05/07 07:44:13;;;;;;;8.97;4.20;;;22.50;97.20;;;;;;2121131;23;20172;-75
2023/05/07 07:45:05;;;;;;;4.20;3.80;;;22.50;97.20;;;;;;2121164;23;20177;-75
2023/05/07 07:45:57;;;;;;;4.03;3.72;;;22.50;97.20;;;;;;2121102;23;20181;-75
2023/05/07 07:46:48;;;;;;;5.93;4.30;;;22.60;97.20;;;;;;2121038;23;20188;-74
2023/05/07 07:47:40;;;;;;;4.27;3.90;;;22.60;97.20;;;;;;2121145;23;20183;-74
2023/05/07 07:48:31;;;;;;;4.05;3.75;;;22.60;97.20;;;;;;2121210;23;20177;-75
2023/05/07 07:49:22;;;;;;;4.43;4.07;;;22.60;97.20;;;;;;2120994;23;20667;-75
2023/05/07 07:50:14;;;;;;;4.13;3.72;;;22.60;97.20;;;;;;2120534;23;20435;-74
2023/05/07 07:51:06;;;;;;;4.45;4.00;;;22.60;97.20;;;;;;2121084;23;20256;-75
2023/05/07 07:51:59;;;;;;;4.63;3.70;;;22.70;97.20;;;;;;2121057;23;20181;-74
2023/05/07 07:52:50;;;;;;;4.05;3.75;;;22.70;97.20;;;;;;2121127;23;20184;-75
2023/05/07 07:53:42;;;;;;;4.32;3.92;;;22.70;97.20;;;;;;2120997;23;20180;-75
2023/05/07 07:54:33;;;;;;;4.03;3.72;;;22.70;97.20;;;;;;2121149;23;20244;-74
2023/05/07 07:55:24;;;;;;;4.30;4.00;;;22.70;97.20;;;;;;2120938;23;20203;-74
2023/05/07 07:56:16;;;;;;;6.10;3.40;;;22.60;97.20;;;;;;2121141;23;20173;-74
2023/05/07 07:57:07;;;;;;;4.40;3.70;;;22.60;97.20;;;;;;2121021;23;20187;-74
2023/05/07 07:57:58;;;;;;;3.53;3.30;;;22.60;97.20;;;;;;2121247;23;20179;-74
2023/05/07 07:58:49;;;;;;;4.45;3.60;;;22.60;97.20;;;;;;2120956;23;20261;-75
2023/05/07 07:59:42;;;;;;;4.97;4.57;;;22.60;97.20;;;;;;2120666;23;20345;-75
2023/05/07 08:00:33;;;;;;;4.15;3.75;;;22.60;97.20;;;;;;2120853;23;20247;-75
2023/05/07 08:01:25;;;;;;;4.30;3.23;;;22.60;97.20;;;;;;2121033;23;20169;-75
2023/05/07 08:02:17;;;;;;;3.75;3.45;;;22.70;97.20;;;;;;2121153;23;20635;-75
2023/05/07 08:03:10;;;;;;;5.22;3.75;;;22.80;97.20;;;;;;2121062;23;20227;-74
2023/05/07 08:04:02;;;;;;;3.78;3.47;;;22.80;97.20;;;;;;2121075;23;20515;-74
2023/05/07 08:04:55;;;;;;;3.63;3.30;;;22.80;97.20;;;;;;2121143;23;20172;-75
2023/05/07 08:05:49;;;;;;;5.95;3.53;;;22.70;97.20;;;;;;2121008;23;20787;-74
2023/05/07 08:06:41;;;;;;;3.97;3.63;;;22.70;97.20;;;;;;2121078;23;20263;-74
2023/05/07 08:07:32;;;;;;;3.90;3.60;;;22.60;97.20;;;;;;2121073;23;20180;-75
2023/05/07 08:08:23;;;;;;;3.80;3.40;;;22.60;97.20;;;;;;2121072;23;20247;-74
2023/05/07 08:09:14;;;;;;;3.75;3.20;;;22.70;97.20;;;;;;2121158;23;20404;-75
2023/05/07 08:10:06;;;;;;;4.27;3.97;;;22.70;97.20;;;;;;2120628;23;20173;-74
2023/05/07 08:10:57;;;;;;;4.18;3.78;;;22.80;97.20;;;;;;2120986;23;20232;-75
2023/05/07 08:11:49;;;;;;;4.20;3.90;;;22.80;97.20;;;;;;2120995;23;20173;-74
2023/05/07 08:12:40;;;;;;;5.32;3.75;;;22.90;97.20;;;;;;2121021;23;20184;-75
2023/05/07 08:13:32;;;;;;;3.93;3.60;;;22.90;97.20;;;;;;2121081;23;20185;-74
2023/05/07 08:14:22;;;;;;;4.50;4.18;;;23.00;97.20;;;;;;2120931;23;20181;-74
2023/05/07 08:15:14;;;;;;;3.77;3.47;;;23.00;97.20;;;;;;2121162;23;20168;-75
2023/05/07 08:16:05;;;;;;;3.90;3.58;;;23.10;97.20;;;;;;2121132;23;20180;-75
2023/05/07 08:16:57;;;;;;;4.27;3.87;;;23.20;97.20;;;;;;2121114;23;20691;-75
2023/05/07 08:17:48;;;;;;;4.20;3.80;;;23.20;97.20;;;;;;2121116;23;20404;-74
2023/05/07 08:18:39;;;;;;;4.30;4.00;;;23.30;97.20;;;;;;2121145;23;20183;-75
2023/05/07 08:19:30;;;;;;;3.42;3.22;;;23.30;97.20;;;;;;2120922;23;20181;-75
2023/05/07 08:20:22;;;;;;;3.97;3.60;;;23.40;97.20;;;;;;2120767;23;20175;-75
2023/05/07 08:21:14;;;;;;;3.72;3.42;;;23.50;97.20;;;;;;2121030;23;20180;-75
2023/05/07 08:22:06;;;;;;;5.72;4.10;;;23.50;97.20;;;;;;2120882;23;20177;-75
2023/05/07 08:22:57;;;;;;;4.28;3.80;;;23.60;97.20;;;;;;2121148;23;20226;-75
2023/05/07 08:23:48;;;;;;;4.10;3.80;;;23.70;97.20;;;;;;2121177;23;20223;-75
2023/05/07 08:24:40;;;;;;;4.30;3.88;;;23.70;97.20;;;;;;2121106;23;20192;-75
2023/05/07 08:25:33;;;;;;;4.60;4.30;;;23.70;97.20;;;;;;2120926;23;20528;-75
2023/05/07 08:26:24;;;;;;;3.75;3.45;;;23.80;97.20;;;;;;2121150;23;20181;-75
2023/05/07 08:27:15;;;;;;;3.70;3.40;;;23.90;97.20;;;;;;2121296;23;20256;-75
2023/05/07 08:28:06;;;;;;;3.50;3.10;;;24.00;97.20;;;;;;2120997;23;20204;-75
2023/05/07 08:28:58;;;;;;;3.67;3.37;;;24.10;97.20;;;;;;2120979;23;20173;-75
2023/05/07 08:29:49;;;;;;;3.53;3.22;;;24.20;97.20;;;;;;2120685;23;20177;-75
2023/05/07 08:30:41;;;;;;;3.97;3.58;;;24.30;97.20;;;;;;2120211;23;20320;-75
2023/05/07 08:31:32;;;;;;;4.55;3.80;;;24.40;97.20;;;;;;2121097;23;20497;-75
2023/05/07 08:32:24;;;;;;;3.83;3.53;;;24.50;97.20;;;;;;2121107;23;20576;-76
2023/05/07 08:33:15;;;;;;;4.20;3.25;;;24.70;97.20;;;;;;2121144;23;20419;-75
2023/05/07 08:34:07;;;;;;;4.33;3.83;;;24.80;97.20;;;;;;2121148;23;20187;-75
2023/05/07 08:34:58;;;;;;;4.60;4.20;;;24.90;97.20;;;;;;2121140;23;20513;-75
2023/05/07 08:35:49;;;;;;;5.23;4.33;;;24.90;97.20;;;;;;2121637;23;20621;-75
2023/05/07 08:36:42;;;;;;;4.55;4.03;;;24.90;97.20;;;;;;2121838;23;20265;-75
2023/05/07 08:37:33;;;;;;;4.18;3.88;;;24.90;97.20;;;;;;2121726;23;20181;-75
2023/05/07 08:38:24;;;;;;;6.40;4.07;;;24.80;97.20;;;;;;2121469;23;20177;-75
2023/05/07 08:39:17;;;;;;;4.17;3.80;;;24.80;97.20;;;;;;2121831;23;20177;-76
2023/05/07 08:40:08;;;;;;;4.20;3.90;;;24.70;97.20;;;;;;2121289;23;20780;-75
2023/05/07 08:41:00;;;;;;;3.90;3.60;;;24.70;97.20;;;;;;2121627;23;20203;-75
2023/05/07 08:41:54;;;;;;;4.10;3.80;;;24.70;97.20;;;;;;2121617;23;20180;-75
2023/05/07 08:42:49;;;;;;;4.45;4.05;;;24.70;97.20;;;;;;2121792;23;20176;-75
2023/05/07 08:43:41;;;;;;;4.85;4.13;;;24.80;97.20;;;;;;2121573;23;20165;-75
2023/05/07 08:44:35;;;;;;;4.38;3.97;;;25.00;97.20;;;;;;2121761;23;20173;-75
2023/05/07 08:45:27;;;;;;;4.47;4.07;;;25.10;97.20;;;;;;2121743;23;20251;-75
2023/05/07 08:46:20;;;;;;;4.03;3.72;;;25.10;97.20;;;;;;2121748;23;20176;-75
2023/05/07 08:47:11;;;;;;;4.35;3.95;;;25.10;97.20;;;;;;2121764;23;20177;-75
2023/05/07 08:48:06;;;;;;;4.00;3.60;;;25.10;97.20;;;;;;2121707;23;20640;-75
2023/05/07 08:48:57;;;;;;;4.30;4.00;;;25.10;97.20;;;;;;2122402;23;20411;-75
2023/05/07 08:49:49;;;;;;;8.10;3.73;;;25.20;97.20;;;;;;2121478;23;20173;-75
2023/05/07 08:50:40;;;;;;;4.35;3.70;;;25.20;97.20;;;;;;2121458;23;20448;-75
2023/05/07 08:51:32;;;;;;;5.03;4.23;;;25.20;97.20;;;;;;2121678;23;20232;-75
2023/05/07 08:52:25;;;;;;;4.28;3.80;;;25.20;97.20;;;;;;2121723;23;20168;-75
2023/05/07 08:53:18;;;;;;;4.28;3.88;;;25.10;97.20;;;;;;2121793;23;20188;-75
2023/05/07 08:54:10;;;;;;;4.15;3.78;;;25.10;97.20;;;;;;2121898;23;20180;-75
2023/05/07 08:55:03;;;;;;;4.20;3.70;;;25.10;97.20;;;;;;2121377;23;20184;-75
2023/05/07 08:55:55;;;;;;;5.28;3.83;;;25.10;97.20;;;;;;2122041;23;20187;-75
2023/05/07 08:56:47;;;;;;;3.38;3.13;;;25.10;97.20;;;;;;2121697;23;20180;-75
2023/05/07 08:57:38;;;;;;;4.15;3.75;;;25.20;97.20;;;;;;2121606;23;20177;-75
2023/05/07 08:58:29;;;;;;;4.53;4.10;;;25.20;97.20;;;;;;2121770;23;20191;-75
2023/05/07 08:59:20;;;;;;;4.40;3.45;;;25.30;97.20;;;;;;2121746;23;20411;-75
2023/05/07 09:00:13;;;;;;;4.00;3.70;;;25.40;97.20;;;;;;2121264;23;20184;-75
2023/05/07 09:01:09;;;;;;;4.95;3.58;;;25.40;97.20;;;;;;2121652;23;20181;-75
2023/05/07 09:02:01;;;;;;;8.10;4.60;;;25.50;97.20;;;;;;2121809;23;20252;-75
2023/05/07 09:02:52;;;;;;;4.10;3.60;;;25.50;97.20;;;;;;2121831;23;20181;-75
2023/05/07 09:03:46;;;;;;;4.15;3.60;;;25.60;97.20;;;;;;2121769;23;20172;-75
2023/05/07 09:04:37;;;;;;;4.05;3.65;;;25.70;97.20;;;;;;2121851;23;20621;-75
2023/05/07 09:05:29;;;;;;;4.03;3.73;;;25.70;97.20;;;;;;2121652;23;20512;-75
2023/05/07 09:06:20;;;;;;;3.58;3.28;;;25.70;97.20;;;;;;2121621;23;20412;-76
2023/05/07 09:07:11;;;;;;;3.83;3.30;;;25.80;97.20;;;;;;2121792;23;20179;-76
2023/05/07 09:08:05;;;;;;;3.38;3.17;;;25.80;97.20;;;;;;2121756;23;20241;-76
2023/05/07 09:08:58;;;;;;;3.70;3.40;;;25.90;97.20;;;;;;2121637;23;20192;-75
2023/05/07 09:09:48;;;;;;;4.57;3.50;;;25.90;97.20;;;;;;2121284;23;20242;-76
2023/05/07 09:10:40;;;;;;;3.80;3.50;;;26.00;97.20;;;;;;2121430;23;20259;-76
2023/05/07 09:11:31;;;;;;;3.35;3.10;;;26.00;97.20;;;;;;2121717;23;20180;-75
2023/05/07 09:12:23;;;;;;;6.83;3.50;;;26.00;97.20;;;;;;2121684;23;20173;-76
2023/05/07 09:13:14;;;;;;;3.40;3.20;;;26.10;97.20;;;;;;2121784;23;20396;-75
2023/05/07 09:14:06;;;;;;;4.30;3.93;;;26.10;97.20;;;;;;2121583;23;20252;-76
2023/05/07 09:14:56;;;;;;;3.20;3.00;;;26.10;97.20;;;;;;2121771;23;20443;-76
2023/05/07 09:15:48;;;;;;;3.50;3.20;;;26.00;97.20;;;;;;2121759;23;20172;-75
2023/05/07 09:16:39;;;;;;;4.50;3.88;;;26.10;97.20;;;;;;2121511;23;20408;-75
2023/05/07 09:17:31;;;;;;;3.10;2.80;;;26.10;97.20;;;;;;2121823;23;20187;-75
2023/05/07 09:18:23;;;;;;;4.15;3.08;;;26.20;97.20;;;;;;2121841;23;20404;-75
2023/05/07 09:19:15;;;;;;;2.95;2.75;;;26.30;97.20;;;;;;2121558;23;20172;-75
2023/05/07 09:20:07;;;;;;;3.30;3.00;;;26.30;97.20;;;;;;2121310;23;20184;-76
2023/05/07 09:20:59;;;;;;;2.95;2.67;;;26.30;97.20;;;;;;2121480;23;20661;-75
2023/05/07 09:21:49;;;;;;;5.50;2.92;;;26.40;97.20;;;;;;2121707;23;20188;-75
2023/05/07 09:22:41;;;;;;;3.47;2.67;;;26.50;97.20;;;;;;2121685;23;20172;-75
2023/05/07 09:23:33;;;;;;;3.55;3.10;;;26.50;97.20;;;;;;2121783;23;20196;-75
2023/05/07 09:24:25;;;;;;;3.45;3.15;;;26.60;97.20;;;;;;2121951;23;20181;-75
2023/05/07 09:25:28;;;;;;;3.83;3.50;;;26.60;97.20;;;;;;2121704;23;20515;-75
2023/05/07 09:26:22;;;;;;;3.60;3.30;;;26.70;97.20;;;;;;2121729;23;20188;-75
2023/05/07 09:27:13;;;;;;;3.03;2.75;;;26.70;97.20;;;;;;2121492;23;20199;-75
2023/05/07 09:28:06;;;;;;;4.07;3.10;;;26.70;97.20;;;;;;2121727;23;20172;-75
2023/05/07 09:28:57;;;;;;;3.28;2.97;;;26.80;97.20;;;;;;2121584;23;20408;-75